Time;durP1;ratioP1;P1;durP2;ratioP2;P2;SDS_P1;SDS_P2;PMS_P1;PMS_P2;Temp;Humidity;BMP_temperature;BMP_pressure;BME280_temperature;BME280_humidity;BME280_pressure;Samples;Min_cycle;Max_cycle;Signal;HPM_P1;HPM_P2
2023/10/08 00:00:43;;;;;;;42.35;40.15;;;;;;;-141.02;77.01;43112.41;5092261;28;20190;-60
2023/10/08 00:03:10;;;;;;;43.63;41.33;;;;;;;-141.02;78.10;43066.31;5092076;28;20186;-65
2023/10/08 00:05:37;;;;;;;17.55;16.75;;;;;;;-141.02;77.94;43031.75;5092335;28;20194;-66
2023/10/08 00:08:06;;;;;;;17.73;16.92;;;;;;;-141.02;79.34;43002.97;5091962;28;20576;-62
2023/10/08 00:10:37;;;;;;;17.95;17.15;;;;;;;-141.02;80.54;42962.66;5091879;28;20282;-64
2023/10/08 00:13:07;;;;;;;17.30;16.60;;;;;;;-141.02;81.41;42908.88;5091959;28;20190;-65
2023/10/08 00:15:36;;;;;;;42.45;40.25;;;;;;;-141.02;82.05;42905.06;5092479;28;20284;-63
2023/10/08 00:18:04;;;;;;;43.20;40.90;;;;;;;-141.02;82.57;42885.84;5091866;28;20194;-64
2023/10/08 00:20:42;;;;;;;44.90;42.50;;;;;;;-141.02;83.53;42851.28;5092203;28;20233;-64
2023/10/08 00:23:09;;;;;;;45.20;42.80;;;;;;;-141.02;82.66;42870.50;5091780;28;20286;-64
2023/10/08 00:25:40;;;;;;;16.77;16.08;;;;;;;-141.02;84.38;42860.91;5092120;28;20254;-66
2023/10/08 00:28:12;;;;;;;17.90;17.10;;;;;;;-141.02;84.18;42809.06;5091826;28;20196;-65
2023/10/08 00:30:42;;;;;;;17.40;16.60;;;;;;;-141.02;83.70;42774.50;5092057;28;20217;-66
2023/10/08 00:33:11;;;;;;;17.42;16.63;;;;;;;-141.02;81.92;42786.03;5091705;28;20196;-66
2023/10/08 00:35:41;;;;;;;17.10;16.40;;;;;;;-141.02;82.10;42828.25;5091713;28;20236;-66
2023/10/08 00:38:14;;;;;;;17.48;16.77;;;;;;;-141.02;82.34;42820.56;5091943;28;20557;-65
2023/10/08 00:40:45;;;;;;;17.60;16.80;;;;;;;-141.02;82.35;42824.41;5091888;28;20738;-65
2023/10/08 00:43:30;;;;;;;17.60;16.80;;;;;;;-141.02;81.35;42799.47;5091998;28;20198;-65
2023/10/08 00:45:59;;;;;;;17.70;16.90;;;;;;;-141.02;81.00;42826.34;5091998;28;20185;-66
2023/10/08 00:48:28;;;;;;;17.48;16.67;;;;;;;-141.02;80.49;42835.94;5091895;28;20248;-66
2023/10/08 00:51:09;;;;;;;17.55;16.75;;;;;;;-141.02;81.09;42814.81;5091543;28;20779;-64
2023/10/08 00:53:39;;;;;;;18.27;17.48;;;;;;;-141.02;80.54;42858.97;5092559;28;20204;-66
2023/10/08 00:56:15;;;;;;;17.65;16.85;;;;;;;-141.02;79.89;42835.94;5095342;28;20681;-66
2023/10/08 00:58:46;;;;;;;17.55;16.75;;;;;;;-141.02;79.61;42828.25;5095267;28;20247;-66
2023/10/08 01:01:16;;;;;;;17.40;16.60;;;;;;;-141.02;79.47;42724.59;5095559;28;20664;-57
2023/10/08 01:03:44;;;;;;;17.80;17.00;;;;;;;-141.02;80.10;42847.47;5095787;28;20201;-58
2023/10/08 01:06:12;;;;;;;18.10;17.30;;;;;;;-141.02;80.60;42828.25;5095355;28;20198;-62
2023/10/08 01:08:47;;;;;;;17.83;17.02;;;;;;;-141.02;80.86;42809.06;5095242;28;20194;-60
2023/10/08 01:11:32;;;;;;;17.50;16.70;;;;;;;-141.02;82.11;42809.06;5095177;28;20286;-60
2023/10/08 01:14:00;;;;;;;17.48;16.67;;;;;;;-141.02;82.34;42791.78;5095209;28;20193;-60
2023/10/08 01:16:28;;;;;;;17.80;17.00;;;;;;;-141.02;83.02;42835.94;5094885;28;20194;-63
2023/10/08 01:18:56;;;;;;;17.70;16.90;;;;;;;-141.02;83.32;42801.38;5095085;28;20247;-60
2023/10/08 01:21:36;;;;;;;17.55;16.75;;;;;;;-141.02;84.20;42772.59;5095078;28;20288;-62
2023/10/08 01:24:07;;;;;;;17.40;16.70;;;;;;;-141.02;84.24;42766.81;5094687;28;20568;-61
2023/10/08 01:26:38;;;;;;;17.45;16.73;;;;;;;-141.02;83.56;42766.81;5095139;28;20241;-65
2023/10/08 01:29:07;;;;;;;17.35;16.65;;;;;;;-141.02;83.24;42716.91;5094610;28;20182;-64
2023/10/08 01:31:34;;;;;;;17.67;16.88;;;;;;;-141.02;83.38;42734.19;5094829;28;20240;-59
2023/10/08 01:34:04;;;;;;;17.70;16.90;;;;;;;-141.02;82.89;42736.13;5094474;28;20204;-60
2023/10/08 01:36:32;;;;;;;18.02;17.23;;;;;;;-141.02;82.83;42716.91;5094755;28;20209;-62
2023/10/08 01:39:01;;;;;;;17.92;17.13;;;;;;;-141.02;82.73;42736.13;5094964;28;20325;-58
2023/10/08 01:41:30;;;;;;;17.85;17.05;;;;;;;-141.02;82.75;42755.31;5094357;28;20656;-61
2023/10/08 01:43:59;;;;;;;17.73;16.92;;;;;;;-141.02;82.36;42759.16;5094382;28;20198;-61
2023/10/08 01:46:27;;;;;;;17.50;16.70;;;;;;;-141.02;82.87;42713.06;5094538;28;20219;-61
2023/10/08 01:49:03;;;;;;;17.75;16.95;;;;;;;-141.02;83.46;42763.00;5094573;28;20602;-60
2023/10/08 01:51:38;;;;;;;17.58;16.77;;;;;;;-141.02;83.77;42739.94;5094424;28;20297;-63
2023/10/08 01:54:10;;;;;;;17.50;16.70;;;;;;;-141.02;84.14;42743.78;5094164;28;20639;-61
2023/10/08 01:56:42;;;;;;;17.30;16.55;;;;;;;-141.02;84.56;42728.44;5093241;28;20234;-62
2023/10/08 01:59:26;;;;;;;17.15;16.45;;;;;;;-141.02;84.33;42739.94;5094394;28;20193;-59
2023/10/08 02:01:56;;;;;;;17.10;16.40;;;;;;;-141.02;86.11;42709.25;5093984;28;20193;-59
2023/10/08 02:04:23;;;;;;;17.17;16.48;;;;;;;-141.02;85.70;42747.63;5094780;28;20365;-61
2023/10/08 02:06:53;;;;;;;17.20;16.48;;;;;;;-141.02;87.24;42690.03;5093797;28;20194;-62
2023/10/08 02:09:25;;;;;;;17.30;16.60;;;;;;;-141.02;88.34;42709.25;5093856;28;20282;-63
2023/10/08 02:11:55;;;;;;;25.25;24.08;;;;;;;-141.02;89.90;42632.44;5094045;28;20302;-61
2023/10/08 02:14:22;;;;;;;16.70;16.00;;;;;;;-141.02;91.30;42540.31;5094041;28;20621;-60
2023/10/08 02:16:52;;;;;;;16.92;16.23;;;;;;;-141.02;93.93;42405.94;5093989;28;20587;-59
2023/10/08 02:19:26;;;;;;;17.00;16.30;;;;;;;-141.02;95.80;42237.03;5093585;28;20194;-59
2023/10/08 02:21:54;;;;;;;16.83;16.13;;;;;;;-141.02;97.59;42091.16;5093578;28;20643;-63
2023/10/08 02:24:23;;;;;;;16.27;15.57;;;;;;;-141.02;98.50;41881.97;5093849;28;20194;-62
2023/10/08 02:30:20;;;;;;;15.43;14.82;;;;;;;-141.02;100.00;41511.56;5093453;28;20251;-62
2023/10/08 02:32:47;;;;;;;15.70;15.10;;;;;;;-141.02;100.00;41534.59;5093595;28;20690;-59
2023/10/08 02:35:14;;;;;;;15.13;14.52;;;;;;;-141.02;100.00;41503.91;5093545;28;20285;-61
2023/10/08 02:37:41;;;;;;;15.13;14.52;;;;;;;-141.02;100.00;41448.25;5093588;28;20200;-61
2023/10/08 02:40:19;;;;;;;15.07;14.48;;;;;;;-141.02;99.56;41463.59;5093196;28;20204;-65
2023/10/08 02:42:47;;;;;;;15.60;15.00;;;;;;;-141.02;96.72;41519.25;5093240;28;20706;-62
2023/10/08 02:45:16;;;;;;;15.80;15.20;;;;;;;-141.02;94.94;41580.66;5093205;28;20233;-62
2023/10/08 02:47:45;;;;;;;16.17;15.48;;;;;;;-141.02;94.55;41594.09;5093382;28;20237;-65
2023/10/08 02:53:35;;;;;;;16.50;15.80;;;;;;;-141.02;92.50;41703.47;5093109;28;20663;-63
2023/10/08 02:56:12;;;;;;;16.55;15.85;;;;;;;-141.02;93.86;41703.47;5092112;28;20221;-66
2023/10/08 02:58:39;;;;;;;16.33;15.63;;;;;;;-141.02;93.74;41718.81;5092851;28;20209;-59
2023/10/08 03:01:07;;;;;;;16.55;15.85;;;;;;;-141.02;96.11;41715.00;5093065;28;20194;-65
2023/10/08 03:03:36;;;;;;;16.75;16.13;;;;;;;-141.02;97.32;41690.03;5092711;28;20571;-66
2023/10/08 03:06:04;;;;;;;16.55;15.95;;;;;;;-141.02;98.63;41676.59;5092743;28;20240;-65
2023/10/08 03:08:36;;;;;;;16.60;16.00;;;;;;;-141.02;100.00;41657.41;5092718;28;20201;-65
2023/10/08 03:11:03;;;;;;;16.00;15.40;;;;;;;-141.02;100.00;41622.88;5092722;28;20630;-65
2023/10/08 03:13:30;;;;;;;16.00;15.40;;;;;;;-141.02;100.00;41613.28;5092678;28;20205;-66
2023/10/08 03:19:27;;;;;;;15.85;15.25;;;;;;;-141.02;100.00;41549.94;5092645;28;20208;-65
2023/10/08 03:21:56;;;;;;;15.65;15.07;;;;;;;-141.02;100.00;41565.31;5092455;28;20196;-63
2023/10/08 03:24:38;;;;;;;16.00;15.40;;;;;;;-141.02;99.71;41586.41;5092493;28;20579;-63
2023/10/08 03:27:07;;;;;;;16.02;15.43;;;;;;;-141.02;98.39;41599.84;5092422;28;20259;-65
2023/10/08 03:29:40;;;;;;;16.30;15.70;;;;;;;-141.02;97.69;41615.19;5092694;28;20201;-65
2023/10/08 03:32:13;;;;;;;16.52;15.93;;;;;;;-141.02;97.28;41597.94;5092644;28;20240;-65
2023/10/08 03:34:46;;;;;;;16.45;15.85;;;;;;;-141.02;97.19;41630.56;5092335;28;20618;-65
2023/10/08 03:37:19;;;;;;;16.30;15.70;;;;;;;-141.02;97.18;41619.03;5092354;28;20235;-66
2023/10/08 03:40:00;;;;;;;16.23;15.63;;;;;;;-141.02;98.53;41642.06;5092257;28;20677;-64
2023/10/08 03:42:34;;;;;;;16.02;15.43;;;;;;;-141.02;98.69;41630.56;5092194;28;20182;-64
2023/10/08 03:45:12;;;;;;;15.90;15.30;;;;;;;-141.02;97.31;41643.97;5092608;28;20189;-66
2023/10/08 03:47:39;;;;;;;15.80;15.20;;;;;;;-141.02;98.17;41632.47;5092162;28;20224;-66
2023/10/08 03:50:11;;;;;;;15.70;15.10;;;;;;;-141.02;98.11;41661.25;5092150;28;20198;-67
2023/10/08 03:52:38;;;;;;;16.00;15.40;;;;;;;-141.02;97.40;41667.00;5092160;28;20648;-66
2023/10/08 03:55:21;;;;;;;16.05;15.45;;;;;;;-141.02;95.66;41676.59;5092159;28;20193;-65
2023/10/08 03:57:56;;;;;;;16.30;15.70;;;;;;;-141.02;93.81;41711.16;5091929;28;20278;-66
2023/10/08 04:00:31;;;;;;;16.23;15.63;;;;;;;-141.02;93.29;41715.00;5092396;28;20192;-65
2023/10/08 04:03:00;;;;;;;16.42;15.73;;;;;;;-141.02;93.20;41736.09;5092340;28;20186;-65
2023/10/08 04:05:40;;;;;;;16.27;15.68;;;;;;;-141.02;94.52;41730.34;5092333;28;20193;-66
2023/10/08 04:08:21;;;;;;;16.80;16.10;;;;;;;-141.02;94.39;41728.44;5092402;28;20201;-66
2023/10/08 04:13:31;;;;;;;16.05;15.45;;;;;;;-141.02;94.92;41768.72;5091862;28;20591;-64
2023/10/08 04:15:58;;;;;;;16.50;15.90;;;;;;;-141.02;93.85;41803.28;5092234;28;20219;-62
2023/10/08 04:18:26;;;;;;;15.80;15.20;;;;;;;-141.02;94.77;41820.53;5092720;28;20194;-63
2023/10/08 04:21:04;;;;;;;15.88;15.27;;;;;;;-141.02;93.90;41851.25;5092098;28;20193;-64
2023/10/08 04:23:31;;;;;;;16.38;15.77;;;;;;;-141.02;93.81;41891.56;5091952;28;20190;-65
2023/10/08 04:25:58;;;;;;;16.63;15.93;;;;;;;-141.02;95.37;41926.09;5091761;28;20285;-64
2023/10/08 04:28:28;;;;;;;16.90;16.20;;;;;;;-141.02;95.98;41958.72;5092282;28;20676;-66
2023/10/08 04:31:00;;;;;;;16.25;15.63;;;;;;;-141.02;96.46;41983.69;5095581;28;20722;-65
2023/10/08 04:33:31;;;;;;;16.48;15.80;;;;;;;-141.02;96.20;42014.38;5096040;28;20215;-64
2023/10/08 04:36:02;;;;;;;15.80;15.20;;;;;;;-141.02;96.83;42037.41;5095983;28;20276;-62
2023/10/08 04:38:29;;;;;;;16.40;15.80;;;;;;;-141.02;96.56;42056.59;5095949;28;20201;-66
2023/10/08 04:41:01;;;;;;;16.23;15.63;;;;;;;-141.02;96.95;42102.66;5095517;28;20198;-65
2023/10/08 04:43:30;;;;;;;16.25;15.65;;;;;;;-141.02;95.82;42102.66;5095557;28;20248;-64
2023/10/08 04:45:58;;;;;;;16.02;15.43;;;;;;;-141.02;95.36;42148.75;5095457;28;20194;-66
2023/10/08 04:48:26;;;;;;;15.70;15.10;;;;;;;-141.02;95.45;42129.53;5095398;28;20204;-64
2023/10/08 04:50:59;;;;;;;16.00;15.40;;;;;;;-141.02;94.85;42141.06;5095324;28;20270;-66
2023/10/08 04:53:36;;;;;;;15.95;15.35;;;;;;;-141.02;94.22;42154.50;5095377;28;20687;-66
2023/10/08 04:56:06;;;;;;;15.60;15.00;;;;;;;-141.02;94.61;42167.94;5095111;28;20636;-58
2023/10/08 04:58:40;;;;;;;15.50;14.90;;;;;;;-141.02;95.39;42160.25;5095492;28;20186;-66
2023/10/08 05:04:07;;;;;;;15.75;15.15;;;;;;;-141.02;93.39;42202.47;5095070;28;20196;-64
2023/10/08 05:07:00;;;;;;;15.38;14.77;;;;;;;-141.02;92.78;42248.53;5095071;28;20651;-61
2023/10/08 05:09:47;;;;;;;15.82;15.23;;;;;;;-141.02;92.36;42296.53;5095349;28;20190;-60
2023/10/08 05:15:21;;;;;;;16.42;15.73;;;;;;;-141.02;88.75;42256.22;5094781;28;20280;-63
2023/10/08 05:17:57;;;;;;;16.00;15.40;;;;;;;-141.02;90.43;42248.53;5094767;28;20251;-65
2023/10/08 05:20:40;;;;;;;15.98;15.38;;;;;;;-141.02;90.63;42306.13;5095701;28;20190;-65
2023/10/08 05:23:20;;;;;;;15.98;15.38;;;;;;;-141.02;88.93;42340.69;5095077;28;20194;-64
2023/10/08 05:26:08;;;;;;;15.93;15.32;;;;;;;-141.02;87.46;42329.16;5094993;28;20190;-62
2023/10/08 05:28:46;;;;;;;16.10;15.50;;;;;;;-141.02;88.83;42302.28;5094530;28;20273;-59
2023/10/08 05:31:36;;;;;;;16.50;15.80;;;;;;;-141.02;88.75;42279.25;5094804;28;20300;-61
2023/10/08 05:34:14;;;;;;;15.93;15.32;;;;;;;-141.02;88.00;42283.09;5094781;28;20192;-60
2023/10/08 05:37:10;;;;;;;16.65;15.95;;;;;;;-141.02;87.43;42275.41;5094581;28;20193;-63
2023/10/08 05:39:40;;;;;;;16.60;15.90;;;;;;;-141.02;87.05;42313.81;5094026;28;20659;-59
2023/10/08 05:42:16;;;;;;;16.52;15.82;;;;;;;-141.02;85.69;42350.28;5094633;28;20194;-63
2023/10/08 05:44:46;;;;;;;16.88;16.17;;;;;;;-141.02;85.23;42336.84;5094719;28;20217;-60
2023/10/08 05:47:38;;;;;;;16.98;16.27;;;;;;;-141.02;84.70;42313.81;5094244;28;20617;-64
2023/10/08 05:53:01;;;;;;;16.65;16.02;;;;;;;-141.02;83.19;42325.31;5094245;28;20343;-66
2023/10/08 05:55:34;;;;;;;16.60;15.90;;;;;;;-141.02;82.20;42350.28;5094439;28;20182;-66
2023/10/08 05:58:13;;;;;;;16.50;15.80;;;;;;;-141.02;81.26;42363.72;5094064;28;20233;-66
2023/10/08 06:00:46;;;;;;;16.33;15.63;;;;;;;-141.02;79.98;42369.47;5094022;28;20232;-65
2023/10/08 06:06:22;;;;;;;16.70;16.00;;;;;;;-141.02;77.67;42423.22;5090276;28;20193;-67
2023/10/08 06:08:51;;;;;;;16.83;16.13;;;;;;;-141.02;77.26;42430.91;5094224;28;20192;-65
2023/10/08 06:11:37;;;;;;;16.70;16.00;;;;;;;-141.02;77.09;42386.75;5094035;28;20218;-65
2023/10/08 06:14:13;;;;;;;16.17;15.57;;;;;;;-141.02;76.30;42444.34;5093745;28;20221;-64
2023/10/08 06:16:46;;;;;;;16.80;16.20;;;;;;;-141.02;76.86;42438.56;5093733;28;20190;-58
2023/10/08 06:19:13;;;;;;;16.92;16.23;;;;;;;-141.02;76.50;42423.22;5093674;28;20239;-66
2023/10/08 06:21:41;;;;;;;16.98;16.27;;;;;;;-141.02;76.04;42442.41;5093886;28;20224;-66
2023/10/08 06:24:10;;;;;;;17.08;16.38;;;;;;;-141.02;75.29;42471.19;5093873;28;20568;-62
2023/10/08 06:26:42;;;;;;;16.85;16.20;;;;;;;-141.02;74.60;42471.19;5093584;28;20201;-60
2023/10/08 06:29:27;;;;;;;17.63;16.92;;;;;;;-141.02;74.57;42425.13;5093795;28;20270;-65
2023/10/08 06:31:55;;;;;;;16.85;16.25;;;;;;;-141.02;74.08;42467.38;5093733;28;20239;-60
2023/10/08 06:34:27;;;;;;;16.20;15.60;;;;;;;-141.02;73.86;42475.03;5093616;28;20200;-63
2023/10/08 06:36:55;;;;;;;16.70;16.10;;;;;;;-141.02;73.23;42490.41;5093323;28;20656;-65
2023/10/08 06:39:25;;;;;;;17.13;16.42;;;;;;;-141.02;73.31;42528.78;5093583;28;20200;-66
2023/10/08 06:41:55;;;;;;;17.00;16.30;;;;;;;-141.02;73.45;42563.34;5093261;28;20681;-66
2023/10/08 06:44:24;;;;;;;17.13;16.42;;;;;;;-141.02;73.09;42524.94;5093749;28;20198;-65
2023/10/08 06:46:52;;;;;;;19.52;18.73;;;;;;;-141.02;72.81;42546.06;5093463;28;20216;-66
2023/10/08 06:49:23;;;;;;;17.13;16.42;;;;;;;-141.02;72.45;42563.34;5093342;28;20250;-65
2023/10/08 06:51:52;;;;;;;17.55;16.83;;;;;;;-141.02;72.56;42601.72;5092217;28;20220;-65
2023/10/08 06:54:19;;;;;;;16.98;16.27;;;;;;;-141.02;72.60;42549.91;5093817;28;20198;-63
2023/10/08 06:56:51;;;;;;;17.38;16.67;;;;;;;-141.02;72.48;42505.75;5092969;28;20226;-63
2023/10/08 06:59:19;;;;;;;16.90;16.20;;;;;;;-141.02;72.21;42515.34;5092901;28;20647;-64
2023/10/08 07:01:50;;;;;;;16.85;16.15;;;;;;;-141.02;72.51;42490.41;5093182;28;20225;-64
2023/10/08 07:04:18;;;;;;;17.20;16.50;;;;;;;-141.02;71.70;42513.44;5092796;28;20276;-64
2023/10/08 07:06:46;;;;;;;16.98;16.27;;;;;;;-141.02;71.46;42490.41;5092982;28;20204;-64
2023/10/08 07:09:22;;;;;;;16.92;16.23;;;;;;;-141.02;71.19;42532.63;5092788;28;20243;-64
2023/10/08 07:11:54;;;;;;;16.65;15.95;;;;;;;-141.02;70.35;42538.38;5092676;28;20709;-65
2023/10/08 07:14:26;;;;;;;16.45;15.75;;;;;;;-141.02;70.11;42513.44;5092680;28;20190;-64
2023/10/08 07:16:58;;;;;;;16.77;16.08;;;;;;;-141.02;70.02;42498.06;5092879;28;20198;-64
2023/10/08 07:19:32;;;;;;;16.95;16.25;;;;;;;-141.02;69.96;42517.28;5092894;28;20186;-64
2023/10/08 07:22:06;;;;;;;16.92;16.23;;;;;;;-141.02;69.22;42549.91;5092457;28;20230;-65
2023/10/08 07:24:36;;;;;;;16.80;16.10;;;;;;;-141.02;68.51;42582.53;5092591;28;20186;-64
2023/10/08 07:27:08;;;;;;;16.98;16.27;;;;;;;-141.02;68.36;42578.69;5092783;28;20186;-65
2023/10/08 07:29:36;;;;;;;16.85;16.15;;;;;;;-141.02;66.84;42638.22;5092719;28;20186;-67
2023/10/08 07:32:09;;;;;;;16.95;16.25;;;;;;;-141.02;66.49;42690.03;5092298;28;20608;-65
2023/10/08 07:34:37;;;;;;;17.40;16.60;;;;;;;-141.02;66.59;42724.59;5092412;28;20281;-66
2023/10/08 07:37:05;;;;;;;17.50;16.70;;;;;;;-141.02;65.45;42763.00;5092696;28;20200;-66
2023/10/08 07:39:35;;;;;;;17.60;16.80;;;;;;;-141.02;64.54;42751.47;5092301;28;20259;-67
2023/10/08 07:42:07;;;;;;;17.38;16.60;;;;;;;-141.02;63.95;42786.03;5092557;28;20618;-66
2023/10/08 07:44:35;;;;;;;17.45;16.65;;;;;;;-141.02;62.93;42809.06;5092587;28;20197;-65
2023/10/08 07:47:09;;;;;;;17.27;16.58;;;;;;;-141.02;61.71;42874.34;5092494;28;20552;-66
2023/10/08 07:49:37;;;;;;;17.48;16.67;;;;;;;-141.02;61.49;42897.38;5092481;28;20189;-65
2023/10/08 07:52:05;;;;;;;17.40;16.60;;;;;;;-141.02;60.59;42926.16;5092015;28;20595;-65
2023/10/08 07:54:34;;;;;;;17.55;16.75;;;;;;;-141.02;60.02;42958.81;5092481;28;20198;-62
2023/10/08 07:57:09;;;;;;;16.90;16.20;;;;;;;-141.02;60.56;43001.03;5092037;28;20260;-66
2023/10/08 07:59:38;;;;;;;16.73;16.02;;;;;;;-141.02;60.06;42979.91;5092373;28;20200;-67
2023/10/08 08:02:09;;;;;;;16.60;15.90;;;;;;;-141.02;59.32;42958.81;5092045;28;20288;-66
2023/10/08 08:04:37;;;;;;;16.45;15.75;;;;;;;-141.02;58.65;42981.84;5096504;28;20196;-65
2023/10/08 08:07:05;;;;;;;16.05;15.38;;;;;;;-141.02;58.45;43016.41;5096163;28;20194;-66
2023/10/08 08:09:37;;;;;;;16.35;15.65;;;;;;;-141.02;58.50;43049.03;5096139;28;20198;-66
2023/10/08 08:12:08;;;;;;;16.52;15.82;;;;;;;-141.02;57.73;43058.63;5096378;28;20217;-67
2023/10/08 08:14:38;;;;;;;16.40;15.70;;;;;;;-141.02;57.36;43035.59;5096065;28;20182;-66
2023/10/08 08:17:14;;;;;;;15.90;15.30;;;;;;;-141.02;57.30;43074.00;5096065;28;20189;-64
2023/10/08 08:19:41;;;;;;;16.15;15.45;;;;;;;-141.02;56.27;43093.19;5096238;28;20330;-65
2023/10/08 08:22:08;;;;;;;16.50;15.80;;;;;;;-141.02;55.75;43066.31;5095948;28;20660;-67
2023/10/08 08:24:37;;;;;;;16.55;15.85;;;;;;;-141.02;56.01;43098.94;5095913;28;20577;-66
2023/10/08 08:27:11;;;;;;;16.38;15.68;;;;;;;-141.02;54.91;43146.94;5096121;28;20277;-67
2023/10/08 08:29:45;;;;;;;16.13;15.50;;;;;;;-141.02;54.82;43185.34;5095848;28;20284;-66
2023/10/08 08:32:15;;;;;;;15.98;15.38;;;;;;;-141.02;55.31;43183.44;5095650;28;20268;-67
2023/10/08 08:34:43;;;;;;;15.80;15.20;;;;;;;-141.02;55.43;43227.59;5096227;28;20194;-66
2023/10/08 08:37:11;;;;;;;15.98;15.38;;;;;;;-141.02;55.36;43239.09;5095585;28;20229;-67
2023/10/08 08:39:38;;;;;;;16.15;15.55;;;;;;;-141.02;55.54;43216.06;5095555;28;20205;-66
2023/10/08 08:42:05;;;;;;;15.98;15.38;;;;;;;-141.02;55.30;43235.28;5095468;28;20193;-65
2023/10/08 08:44:39;;;;;;;15.48;14.88;;;;;;;-141.02;54.88;43221.81;5095530;28;20204;-65
2023/10/08 08:47:10;;;;;;;15.55;14.95;;;;;;;-141.02;54.60;43296.72;5095843;28;20190;-67
2023/10/08 08:49:40;;;;;;;15.35;14.75;;;;;;;-141.02;54.47;43246.78;5095503;28;20193;-66
2023/10/08 08:52:07;;;;;;;15.77;15.18;;;;;;;-141.02;54.18;43242.94;5095661;28;20222;-68
2023/10/08 08:54:33;;;;;;;15.85;15.25;;;;;;;-141.02;54.26;43219.91;5095603;28;20194;-60
2023/10/08 08:57:06;;;;;;;17.08;16.27;;;;;;;-141.02;54.88;43223.75;5095027;28;20268;-60
2023/10/08 08:59:36;;;;;;;15.48;14.88;;;;;;;-141.02;55.17;43250.63;5095214;28;20652;-64
2023/10/08 09:02:07;;;;;;;15.70;15.10;;;;;;;-141.02;55.45;43266.00;5095492;28;20247;-67
2023/10/08 09:04:37;;;;;;;15.32;14.73;;;;;;;-141.02;55.35;43266.00;5095460;28;20651;-64
2023/10/08 09:07:05;;;;;;;15.48;14.88;;;;;;;-141.02;56.06;43323.59;5095943;28;20190;-63
2023/10/08 09:09:33;;;;;;;15.60;15.00;;;;;;;-141.02;55.98;43371.59;5095355;28;20572;-65
2023/10/08 09:12:00;;;;;;;15.48;14.88;;;;;;;-141.02;55.95;43423.44;5095196;28;20198;-65
2023/10/08 09:14:31;;;;;;;15.60;15.00;;;;;;;-141.02;55.14;43381.19;5094521;28;20285;-68
2023/10/08 09:17:00;;;;;;;15.77;15.18;;;;;;;-141.02;54.58;43333.19;5095231;28;20193;-66
2023/10/08 09:19:28;;;;;;;69.03;64.22;;;;;;;-141.02;53.80;43327.44;5095125;28;20198;-67
2023/10/08 09:22:03;;;;;;;15.73;15.13;;;;;;;-141.02;54.12;43302.47;5094791;28;20659;-67
2023/10/08 09:24:34;;;;;;;16.00;15.40;;;;;;;-141.02;53.41;43304.38;5095857;28;20194;-66
2023/10/08 09:27:02;;;;;;;15.95;15.35;;;;;;;-141.02;54.32;43315.91;5095032;28;20186;-66
2023/10/08 09:29:29;;;;;;;15.85;15.25;;;;;;;-141.02;54.60;43296.72;5094593;28;20200;-66
2023/10/08 09:31:57;;;;;;;15.95;15.35;;;;;;;-141.02;54.44;43327.44;5094770;28;20293;-66
2023/10/08 09:34:28;;;;;;;15.73;15.13;;;;;;;-141.02;54.41;43317.81;5094524;28;20190;-61
2023/10/08 09:36:59;;;;;;;14.95;14.35;;;;;;;-141.02;54.68;43333.19;5094842;28;20189;-68
2023/10/08 09:39:28;;;;;;;14.80;14.30;;;;;;;-141.02;54.87;43381.19;5094821;28;20190;-66
2023/10/08 09:41:58;;;;;;;14.68;14.18;;;;;;;-141.02;55.08;43415.75;5094388;28;20547;-68
2023/10/08 09:44:26;;;;;;;14.75;14.25;;;;;;;-141.02;54.48;43388.88;5094288;28;20204;-63
2023/10/08 09:46:55;;;;;;;14.55;14.05;;;;;;;-141.02;54.09;43323.59;5094298;28;20194;-67
2023/10/08 09:49:31;;;;;;;15.07;14.48;;;;;;;-141.02;54.16;43346.63;5094132;28;20194;-62
2023/10/08 09:52:02;;;;;;;14.60;14.10;;;;;;;-141.02;54.40;43381.19;5094176;28;20182;-68
2023/10/08 09:54:37;;;;;;;25.52;23.27;;;;;;;-141.02;54.07;43333.19;5094187;28;20186;-65
2023/10/08 09:57:06;;;;;;;15.00;14.40;;;;;;;-141.02;54.04;43350.47;5093892;28;20606;-67
2023/10/08 09:59:34;;;;;;;15.18;14.57;;;;;;;-141.02;54.14;43335.09;5093974;28;20189;-67
2023/10/08 10:02:03;;;;;;;14.73;14.23;;;;;;;-141.02;53.57;43319.75;5094318;28;20212;-68
2023/10/08 10:04:32;;;;;;;14.95;14.35;;;;;;;-141.02;53.41;43306.31;5093881;28;20240;-67
2023/10/08 10:07:08;;;;;;;15.40;14.70;;;;;;;-141.02;54.18;43266.00;5094289;28;20255;-66
2023/10/08 10:09:37;;;;;;;14.65;14.15;;;;;;;-141.02;54.26;43319.75;5093879;28;20193;-67
2023/10/08 10:12:09;;;;;;;14.80;14.30;;;;;;;-141.02;53.91;43308.22;5093771;28;20247;-67
2023/10/08 10:14:48;;;;;;;15.18;14.57;;;;;;;-141.02;53.63;43277.50;5094162;28;20193;-67
2023/10/08 10:17:16;;;;;;;15.10;14.50;;;;;;;-141.02;53.51;43269.81;5093807;28;20640;-68
2023/10/08 10:19:45;;;;;;;15.05;14.45;;;;;;;-141.02;53.80;43292.88;5093928;28;20270;-68
2023/10/08 10:22:15;;;;;;;14.45;13.95;;;;;;;-141.02;53.94;43296.72;5093649;28;20198;-67
2023/10/08 10:24:42;;;;;;;14.38;13.88;;;;;;;-141.02;53.51;43241.03;5093490;28;20288;-69
2023/10/08 10:27:15;;;;;;;14.68;14.18;;;;;;;-141.02;53.02;43225.66;5092776;28;20197;-68
2023/10/08 10:29:44;;;;;;;14.93;14.32;;;;;;;-141.02;53.57;43258.31;5093769;28;20194;-67
2023/10/08 10:32:14;;;;;;;14.73;14.23;;;;;;;-141.02;54.30;43300.56;5093646;28;20202;-65
2023/10/08 10:34:43;;;;;;;14.88;14.27;;;;;;;-141.02;54.01;43227.59;5093723;28;20189;-67
2023/10/08 10:37:19;;;;;;;14.82;14.23;;;;;;;-141.02;53.37;43256.38;5093286;28;20232;-68
2023/10/08 10:39:55;;;;;;;15.02;14.43;;;;;;;-141.02;53.48;43260.22;5093653;28;20287;-68
2023/10/08 11:54:11;;;;;;;27.73;26.48;;;;;;;-141.02;53.58;43279.44;5130947;27;20547;-67
2023/10/08 11:56:39;;;;;;;27.15;25.80;;;;;;;-141.02;53.06;43242.94;5130691;27;20192;-64
2023/10/08 11:59:08;;;;;;;16.48;15.88;;;;;;;-141.02;53.60;43296.72;5130567;27;20202;-68
2023/10/08 12:01:37;;;;;;;16.50;15.90;;;;;;;-141.02;53.96;43319.75;5130476;27;20220;-67
2023/10/08 12:04:04;;;;;;;16.67;16.08;;;;;;;-141.02;53.44;43283.28;5130117;27;20275;-68
2023/10/08 12:06:33;;;;;;;16.40;15.80;;;;;;;-141.02;53.50;43189.19;5130136;27;20200;-67
2023/10/08 12:09:00;;;;;;;16.73;16.13;;;;;;;-141.02;54.33;43131.59;5130396;27;20202;-67
2023/10/08 12:11:32;;;;;;;16.33;15.73;;;;;;;-141.02;54.81;43177.66;5129992;27;20245;-66
2023/10/08 12:14:00;;;;;;;16.55;15.95;;;;;;;-141.02;55.23;43242.94;5130037;27;20181;-68
2023/10/08 12:16:29;;;;;;;16.63;16.02;;;;;;;-141.02;55.13;43241.03;5129900;27;20672;-68
2023/10/08 12:30:15;;;;;;;16.73;16.02;;;;;;;-141.02;54.96;43346.63;5151881;27;20534;-56
2023/10/08 12:32:46;;;;;;;17.20;16.50;;;;;;;-141.02;54.73;43323.59;5151273;27;20191;-56
2023/10/08 12:35:13;;;;;;;17.65;16.85;;;;;;;-141.02;55.14;43193.03;5151173;27;20247;-56
2023/10/08 12:37:44;;;;;;;17.98;17.17;;;;;;;-141.02;55.70;43383.09;5150706;27;20195;-56
2023/10/08 12:40:22;;;;;;;17.63;16.92;;;;;;;-141.02;55.78;43317.81;5151057;27;20221;-56
2023/10/08 12:42:50;;;;;;;17.40;16.70;;;;;;;-141.02;55.06;43346.63;5150734;27;20183;-56
2023/10/08 12:45:20;;;;;;;17.25;16.55;;;;;;;-141.02;54.52;43317.81;5150582;27;20256;-56
2023/10/08 12:47:51;;;;;;;17.20;16.50;;;;;;;-141.02;54.65;43335.09;5150614;27;20688;-56
2023/10/08 12:50:28;;;;;;;17.65;16.95;;;;;;;-141.02;54.79;43356.22;5150562;27;20227;-56
2023/10/08 12:52:55;;;;;;;16.98;16.27;;;;;;;-141.02;55.05;43196.88;5150536;27;20192;-57
2023/10/08 12:55:24;;;;;;;17.55;16.85;;;;;;;-141.02;55.29;43127.75;5150713;27;20219;-56
2023/10/08 12:57:55;;;;;;;17.15;16.45;;;;;;;-141.02;55.63;43204.56;5150611;27;20220;-56
2023/10/08 13:00:25;;;;;;;17.40;16.70;;;;;;;-141.02;55.66;43162.31;5150745;27;20664;-56
2023/10/08 13:02:54;;;;;;;17.13;16.42;;;;;;;-141.02;55.72;43185.34;5150416;27;20240;-56
2023/10/08 13:05:27;;;;;;;17.50;16.80;;;;;;;-141.02;55.81;43181.50;5150210;27;20550;-56
2023/10/08 13:07:56;;;;;;;17.02;16.33;;;;;;;-141.02;56.02;43218.00;5150528;27;20184;-56